EDT,Max TemperatureF,Mean TemperatureF,Min TemperatureF,Max Dew PointF,MeanDew PointF,Min DewpointF,Max Humidity, Mean Humidity, Min Humidity, Max Sea Level PressureIn, Mean Sea Level PressureIn, Min Sea Level PressureIn, Max VisibilityMiles, Mean VisibilityMiles, Min VisibilityMiles, Max Wind SpeedMPH, Mean Wind SpeedMPH, Max Gust SpeedMPH,PrecipitationIn, CloudCover, Events, WindDirDegrees
2012-8-1,80,76,71,72,71,66,100,86,69,29.95,29.91,29.88,10,9,4,13,3,17,0.01,2,Rain-Thunderstorm,217
2012-8-2,87,78,68,72,68,64,100,84,54,30.01,29.95,29.90,10,10,5,14,4,21,0.01,1,Rain-Thunderstorm,207
2012-8-3,87,78,68,72,68,64,100,76,54,30.12,30.05,29.99,10,10,5,13,4,,0.00,1,,200
2012-8-4,87,78,69,73,71,68,100,79,52,30.24,30.17,30.11,10,9,1,14,4,20,0.02,1,Rain,176
2012-8-5,87,80,73,73,72,70,94,80,55,30.25,30.20,30.14,10,10,10,15,5,17,0.01,1,Rain,212
2012-8-6,87,79,71,73,71,68,100,81,58,30.16,30.11,30.02,10,10,7,10,5,16,0.01,2,Rain-Thunderstorm,237
2012-8-7,82,76,71,72,71,70,100,91,70,30.07,30.04,30.00,10,10,7,15,4,18,0.00,4,Rain-Thunderstorm,224
2012-8-8,82,76,71,72,71,70,100,86,66,30.03,30.00,29.93,10,9,7,14,4,,0.01,4,Rain,222
2012-8-9,87,78,68,72,69,66,100,82,51,30.03,29.97,29.91,10,9,2,10,3,,0.01,3,,209
2012-8-10,82,76,71,72,71,70,94,86,66,29.93,29.90,29.87,10,9,4,17,8,25,0.01,3,Rain-Thunderstorm,216
2012-8-11,80,76,68,73,72,68,100,88,70,29.97,29.94,29.91,10,10,1,16,9,21,0.00,5,Rain-Thunderstorm,207
2012-8-12,,,,,,,,,,,,,,,,,,,,,,
2012-8-13,86,80,75,73,72,68,94,80,55,30.00,29.98,29.97,10,9,7,6,2,,0.01,2,,195
2012-8-14,89,79,69,73,68,61,100,71,40,29.98,29.95,29.89,10,8,0,12,5,17,0.00,2,Rain,225
2012-8-15,87,80,73,73,71,68,94,77,58,29.95,29.92,29.88,10,9,5,12,6,,0.00,1,Thunderstorm,223
2012-8-16,84,76,68,70,66,61,100,75,45,30.03,29.99,29.94,10,9,4,9,2,,0.01,1,,13
2012-8-17,89,78,66,72,67,63,100,73,43,30.02,29.93,29.86,10,8,1,9,2,,0.00,1,,230
2012-8-18,84,76,69,72,69,66,94,77,58,29.94,29.89,29.85,10,10,10,9,4,,0.00,3,,317
2012-8-19,80,74,69,72,69,66,100,91,74,29.93,29.89,29.85,10,10,2,12,3,17,0.00,6,Rain-Thunderstorm,114
2012-8-20,78,73,68,70,67,64,100,86,61,29.99,29.91,29.87,10,8,1,8,1,,0.00,4,Rain,339
2012-8-21,80,74,69,70,68,64,100,82,61,30.10,30.03,29.98,10,9,5,6,1,,0.01,2,,135
2012-8-22,82,74,66,70,67,64,100,81,54,30.13,30.10,30.06,10,9,5,12,3,18,0.00,3,Rain,43
2012-8-23,82,75,68,70,67,64,100,83,54,30.15,30.12,30.10,10,9,4,14,4,17,0.01,1,,38
2012-8-24,71,68,66,70,64,61,100,89,78,30.17,30.12,30.09,10,9,3,10,6,16,0.00,7,Rain,18
2012-8-25,73,68,62,70,66,63,100,89,78,30.14,30.08,30.01,10,10,3,8,4,,0.01,7,Rain-Thunderstorm,299
2012-8-26,84,73,62,73,69,63,100,85,62,30.17,30.14,30.11,10,8,2,12,2,17,0.01,4,Rain-Thunderstorm,235
2012-8-27,84,75,66,75,71,66,100,89,66,30.16,30.09,30.04,10,8,0,9,2,12,0.01,4,Rain,183
2012-8-28,80,74,69,75,72,70,100,92,74,30.06,30.01,29.95,10,8,2,17,4,20,0.01,4,,229
2012-8-29,86,78,69,72,70,63,100,82,48,30.04,29.97,29.93,10,9,5,9,4,,0.01,4,,19
2012-8-30,86,77,68,70,67,61,100,79,45,30.18,30.11,30.03,10,7,0,10,2,,0.01,2,,171
2012-8-31,86,75,64,73,70,64,100,82,62,30.23,30.16,30.09,10,8,2,12,4,16,0.01,1,,235